Latest Weather Observations for Mangalore

IDV60801

Issued at 12:02 pm EST Wednesday 8 July 2015 (issued every 30 minutes, with the page automatically refreshed every 10 minutes)

About weather observations | Map of weather stations | Latest weather observations for VIC | Other Formats
Station Details ID: 088109 Name: MANGALORE AIRPORT Lat: -36.89 Lon: 145.19 Height: 140.8 m
Data from the previous 72 hours. | See also: Recent months at Mangalore
Date/Time
EST
Temp
°C
App
Temp
°C
Dew
Point
Rel
Hum
%
Delta-T
°C
Wind Press
QNH
hPa
Press
MSL
hPa
Rain
since 9 am
mm
Dir
 
Spd
km/h
Gust
km/h
Spd
kts
Gust
kts
08/12:00pm 10.2 7.1 5.6 73 2.1 NNE 11 15 6 8 1027.8 1028.1 0.0
08/11:30am 9.6 7.4 5.4 75 1.9 WSW 6 9 3 5 1028.0 1028.3 0.0
08/11:00am 7.9 6.1 7.8 99 0.0 W 7 9 4 5 1028.3 1028.6 0.0
08/10:30am 6.1 3.9 6.0 99 0.0 W 7 9 4 5 1028.5 1028.8 0.0
08/10:00am 4.4 1.8 4.3 99 0.0 W 7 9 4 5 1028.3 1028.6 0.0
08/09:30am 2.9 0.0 2.8 99 0.0 W 7 9 4 5 1028.1 1028.4 0.0
08/09:00am 1.4 -1.7 1.3 99 0.0 W 7 7 4 4 1027.8 1028.1 0.0
08/08:30am -0.2 -3.6 -0.3 99 0.0 W 7 9 4 5 1027.7 1028.0 0.0
08/08:00am -1.0 -4.5 -1.1 99 0.0 W 7 9 4 5 1027.4 1027.7 0.0
08/07:30am -1.3 -4.6 -1.4 99 0.0 W 6 9 3 5 1027.2 1027.5 0.0
08/07:00am -1.2 -3.4 -1.3 99 0.0 CALM 0 0 0 0 1026.8 1027.1 0.0
08/06:30am -1.1 -3.3 -1.2 99 0.0 CALM 0 0 0 0 1026.4 1026.7 0.0
08/06:00am -1.1 -3.3 -1.2 99 0.0 CALM 0 0 0 0 1026.2 1026.5 0.0
08/05:49am -1.1 -3.3 -1.2 99 0.0 CALM 0 0 0 0 1026.2 1026.5 0.0
08/05:35am -0.7 -2.8 -0.8 99 0.0 CALM 0 0 0 0 1026.0 1026.4 0.0
08/05:30am -0.6 -2.7 -0.7 99 0.0 CALM 0 0 0 0 1026.0 1026.4 0.0
08/05:00am -1.4 -3.6 -1.5 99 0.0 CALM 0 0 0 0 1025.8 1026.2 0.0
08/04:30am -0.8 -2.9 -0.9 99 0.0 CALM 0 0 0 0 1025.7 1026.1 0.0
08/04:00am -1.0 -3.1 -1.1 99 0.0 CALM 0 0 0 0 1025.7 1026.1 0.0
08/03:30am 0.4 -1.5 0.3 99 0.0 CALM 0 0 0 0 1025.6 1026.0 0.0
08/03:04am 0.4 -2.9 0.3 99 0.0 W 7 9 4 5 1025.5 1025.9 0.0
08/03:00am 0.5 -2.8 0.4 99 0.0 W 7 9 4 5 1025.5 1025.9 0.0
08/02:40am 0.5 -2.2 0.4 99 0.0 W 4 7 2 4 1025.4 1025.8 0.0
08/02:30am 0.9 -1.7 0.8 99 0.0 W 4 7 2 4 1025.4 1025.8 0.0
08/02:00am 1.4 -0.4 1.3 99 0.0 CALM 0 0 0 0 1025.4 1025.8 0.0
08/01:58am 1.4 -0.4 1.3 99 0.0 CALM 0 0 0 0 1025.4 1025.8 0.0
08/01:30am 0.9 -1.0 0.8 99 0.0 CALM 0 0 0 0 1025.3 1025.7 0.0
08/01:07am 1.4 -0.4 1.3 99 0.0 CALM 0 0 0 0 1025.2 1025.6 0.0
08/01:00am 1.3 -0.5 1.2 99 0.0 CALM 0 0 0 0 1025.1 1025.5 0.0
08/12:30am 1.2 -0.6 1.1 99 0.0 CALM 0 0 0 0 1025.1 1025.5 0.0
08/12:15am 1.6 -0.2 1.5 99 0.0 CALM 0 0 0 0 1025.1 1025.5 0.0
08/12:00am 1.7 0.0 1.6 99 0.0 CALM 0 0 0 0 1025.1 1025.5 0.0
 
Date/Time
EST
Temp
°C
App
Temp
°C
Dew
Point
Rel
Hum
%
Delta-T
°C
Wind Press
QNH
hPa
Press
MSL
hPa
Rain
since 9 am
mm
Dir
 
Spd
km/h
Gust
km/h
Spd
kts
Gust
kts
07/11:48pm 1.9 -0.6 1.8 99 0.0 W 4 6 2 3 1025.1 1025.5 0.0
07/11:34pm 2.3 -0.5 2.2 99 0.0 W 6 9 3 5 1025.1 1025.5 0.0
07/11:30pm 2.4 0.4 2.3 99 0.0 W 2 9 1 5 1025.1 1025.5 0.0
07/11:12pm 1.8 0.1 1.7 99 0.0 CALM 0 0 0 0 1025.0 1025.4 0.0
07/11:00pm 2.2 0.5 2.1 99 0.0 CALM 0 0 0 0 1025.0 1025.4 0.0
07/10:30pm 2.2 -0.2 2.1 99 0.0 W 4 6 2 3 1024.9 1025.3 0.0
07/10:00pm 2.9 0.2 2.8 99 0.0 W 6 6 3 3 1025.0 1025.4 0.0
07/09:30pm 3.6 1.1 3.5 99 0.0 W 6 7 3 4 1024.8 1025.2 0.0
07/09:00pm 4.0 1.3 3.9 99 0.0 W 7 11 4 6 1024.8 1025.2 0.0
07/08:30pm 4.6 2.2 4.3 98 0.1 W 6 7 3 4 1024.6 1025.0 0.0
07/08:00pm 4.9 3.6 4.3 96 0.3 CALM 0 0 0 0 1024.3 1024.7 0.0
07/07:30pm 5.1 3.8 4.2 94 0.4 CALM 0 6 0 3 1024.0 1024.4 0.0
07/07:00pm 5.8 4.6 4.6 92 0.5 CALM 0 0 0 0 1023.8 1024.2 0.0
07/06:30pm 6.4 4.1 4.6 88 0.8 W 6 9 3 5 1023.4 1023.7 0.0
07/06:00pm 8.3 7.3 5.4 82 1.3 CALM 0 0 0 0 1023.2 1023.5 0.0
07/05:30pm 9.9 8.1 5.3 73 2.1 W 4 6 2 3 1022.9 1023.2 0.0
07/05:00pm 12.4 10.5 6.5 67 2.8 W 6 7 3 4 1022.7 1023.0 0.0
07/04:30pm 13.6 11.5 6.0 60 3.6 W 6 9 3 5 1022.6 1022.9 0.0
07/04:00pm 13.9 11.7 6.0 59 3.8 W 7 11 4 6 1022.4 1022.7 0.0
07/03:30pm 14.1 11.9 6.2 59 3.8 NW 7 13 4 7 1022.1 1022.4 0.0
07/03:00pm 14.1 12.0 5.7 57 4.0 W 6 9 3 5 1022.0 1022.3 0.0
07/02:30pm 13.8 11.6 6.2 60 3.7 W 7 11 4 6 1021.8 1022.1 0.0
07/02:00pm 13.5 10.8 5.7 59 3.7 WNW 9 11 5 6 1021.8 1022.1 0.0
07/01:30pm 13.8 12.1 5.9 59 3.8 WSW 4 9 2 5 1021.9 1022.2 0.0
07/01:00pm 12.7 10.2 4.9 59 3.6 W 7 9 4 5 1022.1 1022.4 0.0
07/12:30pm 12.7 10.5 5.1 60 3.5 S 6 9 3 5 1022.3 1022.6 0.0
07/12:00pm 12.3 10.0 5.9 65 3.0 SW 7 11 4 6 1022.5 1022.8 0.0
07/11:30am 11.7 10.0 5.8 67 2.8 ESE 4 9 2 5 1022.9 1023.2 0.0
07/11:00am 10.7 8.5 6.3 74 2.1 W 7 9 4 5 1023.1 1023.4 0.0
07/10:30am 9.9 7.9 6.4 79 1.6 SSW 6 9 3 5 1023.2 1023.5 0.0
07/10:00am 9.0 7.4 8.1 94 0.4 SSW 6 9 3 5 1023.0 1023.3 0.0
07/09:30am 7.7 5.8 7.6 99 0.0 SSW 7 9 4 5 1022.6 1022.9 0.0
07/09:00am 6.0 3.7 5.9 99 0.0 ENE 7 9 4 5 1022.3 1022.6 1.8
07/08:30am 4.7 2.4 4.6 99 0.0 ENE 6 7 3 4 1022.1 1022.4 1.8
07/08:00am 3.7 0.6 3.6 99 0.0 ENE 9 11 5 6 1021.9 1022.2 1.8
07/07:54am 3.7 0.6 3.6 99 0.0 ENE 9 11 5 6 1021.9 1022.2 1.8
07/07:30am 2.7 -0.6 2.6 99 0.0 ENE 9 11 5 6 1021.6 1021.9 1.8
07/07:00am 2.9 0.6 2.8 99 0.0 ENE 4 7 2 4 1021.3 1021.6 1.8
07/06:30am 4.5 2.1 4.4 99 0.0 ENE 6 9 3 5 1021.0 1021.3 1.8
07/06:00am 5.0 2.7 4.9 99 0.0 ENE 6 6 3 3 1020.6 1020.9 1.8
07/05:30am 5.5 3.3 5.4 99 0.0 ENE 6 9 3 5 1020.3 1020.6 1.8
07/05:22am 5.9 4.9 5.8 99 0.0 CALM 0 7 0 4 1020.2 1020.5 1.8
07/05:00am 5.7 4.7 5.6 99 0.0 CALM 0 0 0 0 1019.9 1020.2 1.8
07/04:52am 5.8 4.8 5.7 99 0.0 CALM 0 0 0 0 1019.8 1020.1 1.8
07/04:30am 6.8 6.0 6.7 99 0.0 CALM 0 6 0 3 1019.8 1020.1 1.8
07/04:00am 6.9 5.0 6.8 99 0.0 ENE 6 9 3 5 1019.8 1020.1 1.8
07/03:30am 6.8 6.0 6.7 99 0.0 CALM 0 0 0 0 1019.8 1020.1 1.8
07/03:00am 6.8 6.0 6.7 99 0.0 CALM 0 0 0 0 1019.9 1020.2 1.8
07/02:30am 6.7 5.2 6.6 99 0.0 ENE 4 6 2 3 1019.8 1020.1 1.8
07/02:00am 6.6 4.7 6.5 99 0.0 ENE 6 7 3 4 1019.5 1019.8 1.8
07/01:30am 6.7 4.8 6.6 99 0.0 ENE 6 9 3 5 1019.4 1019.7 1.8
07/01:00am 6.6 5.0 6.5 99 0.0 ENE 4 6 2 3 1019.3 1019.6 1.8
07/12:30am 6.7 5.9 6.6 99 0.0 CALM 0 0 0 0 1019.2 1019.5 1.8
07/12:00am 6.6 5.8 6.5 99 0.0 CALM 0 0 0 0 1019.3 1019.6 1.8
 
Date/Time
EST
Temp
°C
App
Temp
°C
Dew
Point
Rel
Hum
%
Delta-T
°C
Wind Press
QNH
hPa
Press
MSL
hPa
Rain
since 9 am
mm
Dir
 
Spd
km/h
Gust
km/h
Spd
kts
Gust
kts
06/11:30pm 6.8 5.2 6.5 98 0.1 ENE 4 6 2 3 1019.3 1019.6 1.8
06/11:00pm 6.8 6.0 6.5 98 0.1 CALM 0 0 0 0 1019.3 1019.6 1.8
06/10:30pm 6.8 5.9 6.1 95 0.3 CALM 0 0 0 0 1019.2 1019.5 1.8
06/10:00pm 7.0 6.1 6.1 94 0.4 CALM 0 0 0 0 1019.3 1019.6 1.8
06/09:30pm 6.9 4.8 6.0 94 0.4 ENE 6 7 3 4 1019.1 1019.4 1.8
06/09:00pm 6.9 4.7 6.0 94 0.4 ENE 7 9 4 5 1018.9 1019.2 1.8
06/08:30pm 7.0 4.4 6.1 94 0.4 ENE 9 11 5 6 1018.6 1019.0 1.8
06/08:00pm 6.9 3.6 6.2 95 0.3 ENE 13 15 7 8 1018.5 1018.9 1.8
06/07:30pm 7.0 4.6 6.9 99 0.0 NNE 9 13 5 7 1018.5 1018.9 1.8
06/07:00pm 6.9 4.5 6.8 99 0.0 NNE 9 9 5 5 1018.4 1018.8 1.8
06/06:30pm 7.0 5.1 6.6 97 0.2 NNE 6 7 3 4 1018.2 1018.6 1.8
06/06:00pm 7.1 6.3 6.5 96 0.3 CALM 0 2 0 1 1018.0 1018.4 1.8
06/05:30pm 7.0 4.8 6.1 94 0.4 NNE 7 9 4 5 1017.4 1017.7 1.6
06/05:00pm 7.2 4.5 5.5 89 0.8 NNE 9 9 5 5 1017.3 1017.6 0.8
06/04:30pm 7.8 4.2 5.1 83 1.2 NNE 13 17 7 9 1016.9 1017.2 0.4
06/04:00pm 8.1 3.7 4.7 79 1.5 NNE 17 22 9 12 1016.8 1017.1 0.0
06/03:30pm 9.1 4.5 3.5 68 2.4 NE 17 24 9 13 1016.5 1016.8 0.0
06/03:00pm 9.1 3.5 3.5 68 2.4 NE 22 28 12 15 1016.3 1016.6 0.0
06/02:30pm 9.3 4.1 3.7 68 2.5 NE 20 28 11 15 1016.4 1016.7 0.0
06/02:00pm 9.6 4.5 4.0 68 2.5 NE 20 24 11 13 1016.7 1017.0 0.0
06/01:30pm 9.6 4.4 3.8 67 2.6 NE 20 26 11 14 1016.8 1017.1 0.0
06/01:00pm 8.9 4.8 4.5 74 2.0 NE 15 20 8 11 1017.3 1017.6 0.0
06/12:30pm 8.2 4.5 4.2 76 1.8 NNE 13 17 7 9 1017.8 1018.2 0.0
06/12:00pm 8.1 4.4 4.5 78 1.6 NE 13 17 7 9 1018.1 1018.5 0.0
06/11:30am 7.7 4.0 4.7 81 1.3 NE 13 17 7 9 1018.2 1018.6 0.0
06/11:00am 7.3 3.6 4.6 83 1.2 NE 13 15 7 8 1018.4 1018.8 0.0
06/10:30am 7.0 3.8 5.0 87 0.9 NNE 11 13 6 7 1018.5 1018.9 0.0
06/10:00am 6.5 2.8 4.7 88 0.8 NE 13 17 7 9 1018.5 1018.9 0.0
06/09:30am 6.1 3.2 4.6 90 0.7 NNE 9 13 5 7 1018.6 1019.0 0.0
06/09:00am 5.9 2.6 4.5 91 0.6 NNE 11 13 6 7 1018.5 1018.9 0.2
06/08:30am 5.6 2.8 5.0 96 0.3 NE 9 13 5 7 1018.3 1018.7 0.2
06/08:00am 5.3 2.5 5.2 99 0.0 NE 9 11 5 6 1018.3 1018.7 0.2
06/07:30am 4.7 2.2 4.6 99 0.0 NE 7 9 4 5 1018.2 1018.6 0.2
06/07:00am 4.0 1.3 3.9 99 0.0 NE 7 7 4 4 1018.1 1018.5 0.0
06/06:30am 3.7 2.3 3.4 98 0.1 CALM 0 0 0 0 1018.2 1018.6 0.0
06/06:00am 3.3 1.8 2.9 97 0.2 CALM 0 0 0 0 1018.2 1018.6 0.0
06/05:30am 3.2 1.7 2.8 97 0.2 CALM 0 0 0 0 1018.2 1018.6 0.0
06/05:00am 3.4 1.9 3.1 98 0.1 CALM 0 0 0 0 1018.2 1018.6 0.0
06/04:30am 3.1 0.4 2.7 97 0.2 NE 6 7 3 4 1018.2 1018.6 0.0
06/04:00am 2.7 -0.1 2.3 97 0.2 NE 6 9 3 5 1018.4 1018.8 0.0
06/03:30am 2.7 1.1 2.3 97 0.2 CALM 0 6 0 3 1018.6 1019.0 0.0
06/03:00am 2.9 0.2 2.5 97 0.2 NE 6 6 3 3 1018.9 1019.2 0.0
06/02:30am 2.4 0.7 2.1 98 0.1 CALM 0 0 0 0 1019.1 1019.4 0.0
06/02:00am 2.0 -1.5 1.4 96 0.2 NE 9 11 5 6 1019.1 1019.4 0.0
06/01:30am 2.0 -1.5 1.4 96 0.2 NE 9 11 5 6 1019.2 1019.5 0.0
06/01:00am 1.4 -1.7 0.4 93 0.4 NE 6 7 3 4 1019.6 1019.9 0.0
06/12:30am 2.3 -0.6 1.3 93 0.4 NE 6 7 3 4 1019.8 1020.1 0.0
06/12:00am 3.5 0.6 2.5 93 0.4 NE 7 9 4 5 1019.9 1020.2 0.0
 
Date/Time
EST
Temp
°C
App
Temp
°C
Dew
Point
Rel
Hum
%
Delta-T
°C
Wind Press
QNH
hPa
Press
MSL
hPa
Rain
since 9 am
mm
Dir
 
Spd
km/h
Gust
km/h
Spd
kts
Gust
kts
05/11:30pm 3.0 -0.8 1.8 92 0.5 NE 11 13 6 7 1019.9 1020.2 0.0
05/11:00pm 3.1 -1.1 1.8 91 0.5 NE 13 13 7 7 1019.8 1020.1 0.0
05/10:30pm 3.5 -0.6 2.0 90 0.6 NE 13 15 7 8 1019.9 1020.2 0.0
05/10:00pm 3.3 -0.9 1.5 88 0.7 NE 13 15 7 8 1020.0 1020.3 0.0
05/09:30pm 3.9 -0.2 2.1 88 0.7 NE 13 15 7 8 1020.0 1020.3 0.0
05/09:00pm 4.1 0.0 2.1 87 0.8 NE 13 15 7 8 1020.0 1020.3 0.0
05/08:30pm 3.7 -0.9 1.7 87 0.8 NE 15 17 8 9 1019.8 1020.1 0.0
05/08:00pm 4.1 -0.1 1.6 84 1.0 NE 13 15 7 8 1020.0 1020.3 0.0
05/07:30pm 4.3 0.1 1.5 82 1.1 NE 13 15 7 8 1020.0 1020.3 0.0
05/07:00pm 4.1 0.2 1.3 82 1.1 NE 11 13 6 7 1019.8 1020.1 0.0
05/06:30pm 5.6 1.4 1.9 77 1.5 NNE 13 15 7 8 1019.9 1020.2 0.0
05/06:00pm 6.1 2.3 1.8 74 1.7 NNE 11 13 6 7 1019.8 1020.1 0.0
05/05:30pm 7.5 4.2 2.2 69 2.2 NNE 9 11 5 6 1019.7 1020.0 0.0
05/05:00pm 9.5 5.5 2.8 63 2.9 NNE 13 17 7 9 1019.5 1019.8 0.0
05/04:30pm 10.6 6.2 2.7 58 3.4 N 15 19 8 10 1019.6 1019.9 0.0
05/04:00pm 11.3 6.6 3.1 57 3.6 N 17 22 9 12 1019.7 1020.0 0.0
05/03:30pm 11.4 6.3 3.2 57 3.6 N 19 20 10 11 1019.8 1020.1 0.0
05/03:00pm 11.5 7.6 3.5 58 3.5 NNE 13 17 7 9 1019.9 1020.2 0.0
05/02:30pm 11.4 7.0 2.7 55 3.8 N 15 20 8 11 1020.1 1020.4 0.0
05/02:00pm 12.6 7.6 3.8 55 4.0 N 19 30 10 16 1020.2 1020.5 0.0
05/01:30pm 11.5 7.5 2.8 55 3.8 NNE 13 20 7 11 1020.3 1020.6 0.0
05/01:00pm 11.7 7.0 3.2 56 3.8 N 17 22 9 12 1020.6 1020.9 0.0
05/12:30pm 11.1 6.9 3.9 61 3.2 NNE 15 20 8 11 1021.1 1021.4 0.0

Other Formats:

Comma delimited format used in spreadsheet applications
http://www.bom.gov.au/fwo/IDV60801/IDV60801.94874.axf

JavaScript Object Notation format (JSON) in row-major order
http://www.bom.gov.au/fwo/IDV60801/IDV60801.94874.json